Welcome to Northern Hawkes Bay. New Zealand.
PWS Header
      nz Flag



Hit Counter


W3C Valid W3C Valid logo


    Wairoa

Select any of the Stations below to visit their websites.










Historic Data from Weather Underground
Select the location of interest below. Wairoa is the default. Please have patience, this Data is slow to load in.
Northern Hawkes Bay Historical Data
Daily Summary for April 1, 2017 Units:  Metric    English   Both
« Previous Day
Next Day »
Daily Weekly Monthly Yearly Custom
  High: Low: Average:
Temperature: 25.8 °C 12.9 °C 17.1 °C
Dew Point: 18.8 °C 12.4 °C 15.6 °C
Humidity: 99% 64% 92%
Wind Speed: 12.2km/h 0.0km/h 1.4km/h
Wind Gust: 17.2km/h - -
Wind- - SSW
Pressure: 1020.2 hPa 1016.8 hPa -
Precipitation: 0.0 mm    
Historical Graphs
 
 
Tabular Data for April 1, 2017
Time Temperature Dew Point Pressure Wind Wind Speed Wind Gust Humidity Rainfall Rate (Hourly) solar
00:01 15.5 °C 15.3 °C 1019.2 hPa Calm     99% 0.0 mm 0 W/m2
00:07 15.5 °C 15.3 °C 1019.2 hPa Calm     99% 0.0 mm 0 W/m2
00:13 15.6 °C 15.4 °C 1019.2 hPa Calm     99% 0.0 mm 0 W/m2
00:19 15.5 °C 15.3 °C 1019.2 hPa Calm     99% 0.0 mm 0 W/m2
00:25 15.4 °C 15.3 °C 1019.2 hPa Calm     99% 0.0 mm 0 W/m2
00:31 15.4 °C 15.3 °C 1019.2 hPa Calm     99% 0.0 mm 0 W/m2
00:37 15.3 °C 15.2 °C 1019.2 hPa Calm     99% 0.0 mm 0 W/m2
00:43 15.3 °C 15.2 °C 1019.2 hPa Calm     99% 0.0 mm 0 W/m2
00:49 15.2 °C 15.1 °C 1019.2 hPa Calm     99% 0.0 mm 0 W/m2
00:55 15.2 °C 15.1 °C 1019.5 hPa Calm     99% 0.0 mm 0 W/m2
01:01 15.2 °C 15.1 °C 1019.2 hPa Calm     99% 0.0 mm 0 W/m2
01:07 15.0 °C 14.8 °C 1019.2 hPa Calm     99% 0.0 mm 0 W/m2
01:13 15.0 °C 14.8 °C 1019.2 hPa Calm     99% 0.0 mm 0 W/m2
01:19 15.0 °C 14.8 °C 1019.2 hPa Calm     99% 0.0 mm 0 W/m2
01:25 15.0 °C 14.8 °C 1019.2 hPa Calm     99% 0.0 mm 0 W/m2
01:31 14.9 °C 14.8 °C 1019.2 hPa Calm   5.0 km/h 99% 0.0 mm 0 W/m2
01:37 14.9 °C 14.8 °C 1019.2 hPa Calm   5.0 km/h 99% 0.0 mm 0 W/m2
01:43 14.8 °C 14.7 °C 1019.2 hPa Calm     99% 0.0 mm 0 W/m2
01:49 14.8 °C 14.7 °C 1019.2 hPa Calm     99% 0.0 mm 0 W/m2
01:55 14.7 °C 14.6 °C 1019.2 hPa Calm     99% 0.0 mm 0 W/m2
02:01 14.5 °C 14.3 °C 1019.2 hPa Calm     99% 0.0 mm 0 W/m2
02:07 14.5 °C 14.3 °C 1019.2 hPa Calm     99% 0.0 mm 0 W/m2
02:13 14.4 °C 14.3 °C 1019.2 hPa Calm     99% 0.0 mm 0 W/m2
02:19 14.3 °C 14.2 °C 1019.2 hPa Calm     99% 0.0 mm 0 W/m2
02:25 14.2 °C 14.1 °C 1019.2 hPa Calm     99% 0.0 mm 0 W/m2
02:31 14.0 °C 13.8 °C 1018.8 hPa Calm     99% 0.0 mm 0 W/m2
02:37 13.9 °C 13.8 °C 1018.8 hPa Calm     99% 0.0 mm 0 W/m2
02:43 13.9 °C 13.8 °C 1018.8 hPa Calm   1.1 km/h 99% 0.0 mm 0 W/m2
02:49 13.9 °C 13.8 °C 1018.8 hPa Calm   1.1 km/h 99% 0.0 mm 0 W/m2
02:55 14.0 °C 13.8 °C 1018.8 hPa Calm     99% 0.0 mm 0 W/m2
03:01 14.0 °C 13.8 °C 1018.8 hPa Calm     99% 0.0 mm 0 W/m2
03:07 14.0 °C 13.8 °C 1018.5 hPa Calm     99% 0.0 mm 0 W/m2
03:13 13.9 °C 13.8 °C 1018.5 hPa Calm     99% 0.0 mm 0 W/m2
03:19 13.8 °C 13.7 °C 1018.5 hPa Calm     99% 0.0 mm 0 W/m2
03:25 13.8 °C 13.7 °C 1018.5 hPa Calm     99% 0.0 mm 0 W/m2
03:31 13.8 °C 13.7 °C 1018.5 hPa Calm     99% 0.0 mm 0 W/m2
03:37 13.8 °C 13.7 °C 1018.2 hPa Calm     99% 0.0 mm 0 W/m2
03:43 13.7 °C 13.6 °C 1018.2 hPa Calm   5.0 km/h 99% 0.0 mm 0 W/m2
03:50 13.7 °C 13.6 °C 1018.2 hPa Calm   5.0 km/h 99% 0.0 mm 0 W/m2
03:55 13.6 °C 13.4 °C 1018.2 hPa Calm     99% 0.0 mm 0 W/m2
04:01 13.6 °C 13.4 °C 1018.2 hPa Calm     99% 0.0 mm 0 W/m2
04:07 13.7 °C 13.6 °C 1018.2 hPa Calm   5.0 km/h 99% 0.0 mm 0 W/m2
04:13 13.7 °C 13.6 °C 1018.2 hPa Calm   5.0 km/h 99% 0.0 mm 0 W/m2
04:19 13.6 °C 13.4 °C 1017.8 hPa Calm   3.5 km/h 99% 0.0 mm 0 W/m2
04:25 13.6 °C 13.4 °C 1017.8 hPa Calm   3.5 km/h 99% 0.0 mm 0 W/m2
04:31 13.7 °C 13.6 °C 1018.2 hPa Calm   3.5 km/h 99% 0.0 mm 0 W/m2
04:37 13.6 °C 13.4 °C 1018.2 hPa WNW 2.6 km/h 6.1 km/h 99% 0.0 mm 0 W/m2
04:43 13.4 °C 13.3 °C 1018.2 hPa Calm   6.1 km/h 99% 0.0 mm 0 W/m2
04:49 13.3 °C 13.2 °C 1017.8 hPa Calm   3.5 km/h 99% 0.0 mm 0 W/m2
04:55 13.5 °C 13.3 °C 1017.8 hPa Calm   3.5 km/h 99% 0.0 mm 0 W/m2
05:01 13.6 °C 13.4 °C 1017.8 hPa Calm   3.5 km/h 99% 0.0 mm 0 W/m2
05:07 13.7 °C 13.6 °C 1018.2 hPa Calm     99% 0.0 mm 0 W/m2
05:13 13.3 °C 13.2 °C 1018.2 hPa Calm     99% 0.0 mm 0 W/m2
05:19 13.2 °C 13.1 °C 1018.2 hPa Calm   3.5 km/h 99% 0.0 mm 0 W/m2
05:25 13.1 °C 12.9 °C 1018.2 hPa Calm   3.5 km/h 99% 0.0 mm 0 W/m2
05:31 13.1 °C 12.9 °C 1018.2 hPa Calm   3.5 km/h 99% 0.0 mm 0 W/m2
05:37 13.1 °C 12.9 °C 1018.2 hPa Calm     99% 0.0 mm 0 W/m2
05:43 13.1 °C 12.9 °C 1018.2 hPa Calm     99% 0.0 mm 0 W/m2
05:49 13.1 °C 12.9 °C 1018.5 hPa Calm     99% 0.0 mm 0 W/m2
05:55 13.0 °C 12.8 °C 1018.2 hPa Calm     99% 0.0 mm 0 W/m2
06:01 12.9 °C 12.4 °C 1018.5 hPa Calm     97% 0.0 mm 0 W/m2
06:07 12.9 °C 12.4 °C 1018.8 hPa Calm     97% 0.0 mm 0 W/m2
06:13 12.9 °C 12.4 °C 1018.5 hPa Calm     97% 0.0 mm 0 W/m2
06:19 13.1 °C 12.9 °C 1018.5 hPa Calm     99% 0.0 mm 0 W/m2
06:25 13.1 °C 12.9 °C 1018.5 hPa Calm   1.1 km/h 99% 0.0 mm 0 W/m2
06:31 13.0 °C 12.8 °C 1018.5 hPa Calm   1.1 km/h 99% 0.0 mm 0 W/m2
06:37 13.0 °C 12.8 °C 1018.8 hPa Calm     99% 0.0 mm 0 W/m2
06:43 13.0 °C 12.8 °C 1018.5 hPa Calm     99% 0.0 mm 0 W/m2
06:49 13.0 °C 12.8 °C 1018.8 hPa Calm     99% 0.0 mm 0 W/m2
06:55 13.0 °C 12.8 °C 1018.8 hPa Calm     99% 0.0 mm 0 W/m2
07:01 13.0 °C 12.8 °C 1018.8 hPa Calm     99% 0.0 mm 0 W/m2
07:07 13.0 °C 12.8 °C 1018.8 hPa Calm     99% 0.0 mm 0 W/m2
07:13 13.0 °C 12.8 °C 1018.8 hPa Calm     99% 0.0 mm 0 W/m2
07:19 13.0 °C 12.8 °C 1018.8 hPa Calm   1.1 km/h 99% 0.0 mm 0 W/m2
07:25 12.9 °C 12.4 °C 1018.8 hPa Calm   1.1 km/h 97% 0.0 mm 0 W/m2
07:31 13.0 °C 12.8 °C 1018.8 hPa Calm     99% 0.0 mm 4 W/m2
07:37 13.0 °C 12.8 °C 1019.2 hPa Calm     99% 0.0 mm 8 W/m2
07:43 13.0 °C 12.8 °C 1019.2 hPa Calm     99% 0.0 mm 14 W/m2
07:49 13.0 °C 12.8 °C 1019.2 hPa Calm     99% 0.0 mm 17 W/m2
07:55 13.0 °C 12.8 °C 1019.2 hPa Calm     99% 0.0 mm 22 W/m2
08:01 13.1 °C 12.9 °C 1019.2 hPa Calm     99% 0.0 mm 27 W/m2
08:07 13.1 °C 12.9 °C 1019.2 hPa Calm     99% 0.0 mm 34 W/m2
08:13 13.1 °C 12.9 °C 1019.5 hPa Calm     99% 0.0 mm 40 W/m2
08:19 13.2 °C 13.1 °C 1019.5 hPa Calm     99% 0.0 mm 51 W/m2
08:25 13.3 °C 13.2 °C 1019.5 hPa Calm     99% 0.0 mm 51 W/m2
08:31 13.5 °C 13.3 °C 1019.5 hPa Calm     99% 0.0 mm 48 W/m2
08:37 13.5 °C 13.3 °C 1019.5 hPa Calm     99% 0.0 mm 56 W/m2
08:43 13.7 °C 13.6 °C 1019.5 hPa Calm   2.6 km/h 99% 0.0 mm 68 W/m2
08:49 13.8 °C 13.7 °C 1019.5 hPa Calm   2.6 km/h 99% 0.0 mm 84 W/m2
08:55 14.0 °C 13.8 °C 1019.5 hPa Calm   1.1 km/h 99% 0.0 mm 101 W/m2
09:01 14.0 °C 13.8 °C 1019.5 hPa Calm   1.1 km/h 99% 0.0 mm 135 W/m2
09:07 14.4 °C 14.3 °C 1019.5 hPa Calm     99% 0.0 mm 155 W/m2
09:13 14.7 °C 14.6 °C 1019.5 hPa Calm   5.0 km/h 99% 0.0 mm 204 W/m2
09:19 15.1 °C 14.9 °C 1019.9 hPa NNW 3.5 km/h 7.2 km/h 99% 0.0 mm 261 W/m2
09:25 15.3 °C 15.2 °C 1019.9 hPa North 1.1 km/h 8.7 km/h 99% 0.0 mm 327 W/m2
09:31 15.9 °C 15.8 °C 1019.9 hPa Calm   8.7 km/h 99% 0.0 mm 282 W/m2
09:37 16.2 °C 15.9 °C 1019.9 hPa Calm   7.2 km/h 98% 0.0 mm 184 W/m2
09:43 16.4 °C 16.1 °C 1019.9 hPa Calm   6.1 km/h 98% 0.0 mm 156 W/m2
09:49 16.5 °C 16.2 °C 1019.9 hPa Calm     98% 0.0 mm 266 W/m2
09:55 17.0 °C 16.6 °C 1019.9 hPa Calm   6.1 km/h 97% 0.0 mm 178 W/m2
10:01 16.8 °C 16.3 °C 1019.9 hPa Calm   6.1 km/h 97% 0.0 mm 124 W/m2
10:07 16.9 °C 16.1 °C 1019.9 hPa Calm   5.0 km/h 95% 0.0 mm 162 W/m2
10:13 17.0 °C 15.9 °C 1019.9 hPa Calm   5.0 km/h 93% 0.0 mm 301 W/m2
10:19 17.6 °C 16.3 °C 1019.9 hPa Calm   5.0 km/h 92% 0.0 mm 434 W/m2
10:23 18.5 °C 17.6 °C 1019.9 hPa Calm   5.0 km/h 94% 0.0 mm 291 W/m2
10:29 19.1 °C 17.1 °C 1020.2 hPa Calm   5.0 km/h 88% 0.0 mm 502 W/m2
10:35 20.1 °C 17.1 °C 1020.2 hPa Calm   5.0 km/h 83% 0.0 mm 507 W/m2
10:41 21.1 °C 17.1 °C 1020.2 hPa Calm   1.1 km/h 78% 0.0 mm 495 W/m2
10:47 22.0 °C 17.4 °C 1020.2 hPa Calm   1.1 km/h 75% 0.0 mm 457 W/m2
10:53 23.3 °C 17.8 °C 1020.2 hPa Calm     71% 0.0 mm 187 W/m2
10:59 22.7 °C 16.7 °C 1020.2 hPa Calm   5.0 km/h 69% 0.0 mm 124 W/m2
11:05 22.0 °C 16.7 °C 1020.2 hPa Calm   5.0 km/h 72% 0.0 mm 121 W/m2
11:11 22.0 °C 16.5 °C 1019.9 hPa Calm   1.1 km/h 71% 0.0 mm 111 W/m2
11:17 22.4 °C 16.7 °C 1020.2 hPa Calm     70% 0.0 mm 100 W/m2
11:23 23.3 °C 17.1 °C 1020.2 hPa Calm   3.5 km/h 68% 0.0 mm 104 W/m2
11:29 23.7 °C 17.2 °C 1019.9 hPa Calm   2.6 km/h 67% 0.0 mm 111 W/m2
11:35 24.0 °C 17.1 °C 1019.9 hPa SSW 5.0 km/h 7.2 km/h 65% 0.0 mm 213 W/m2
11:41 23.5 °C 17.3 °C 1019.9 hPa Calm   7.2 km/h 68% 0.0 mm 470 W/m2
11:47 23.2 °C 16.5 °C 1019.9 hPa Calm   7.2 km/h 66% 0.0 mm 534 W/m2
11:53 23.4 °C 16.4 °C 1019.5 hPa Calm   8.7 km/h 65% 0.0 mm 409 W/m2
11:59 23.2 °C 16.5 °C 1019.5 hPa ESE 1.1 km/h 8.7 km/h 66% 0.0 mm 116 W/m2
12:05 23.5 °C 17.1 °C 1019.5 hPa Calm   5.0 km/h 67% 0.0 mm 113 W/m2
12:11 24.0 °C 17.3 °C 1019.5 hPa SSE 1.1 km/h 6.1 km/h 66% 0.0 mm 135 W/m2
12:17 23.9 °C 17.7 °C 1019.5 hPa South 3.5 km/h 6.1 km/h 68% 0.0 mm 592 W/m2
14:07 25.3 °C 18.3 °C 1017.8 hPa Calm   7.2 km/h 65% 0.0 mm 584 W/m2
14:15 25.8 °C 18.5 °C 1017.5 hPa ENE 3.5 km/h 8.7 km/h 64% 0.0 mm 529 W/m2
14:21 25.1 °C 18.3 °C 1017.5 hPa SE 2.6 km/h 9.7 km/h 66% 0.0 mm 473 W/m2
14:27 25.0 °C 18.4 °C 1017.2 hPa SSE 7.2 km/h 9.7 km/h 67% 0.0 mm 542 W/m2
14:33 24.7 °C 18.7 °C 1017.2 hPa SSE 6.1 km/h 11.1 km/h 69% 0.0 mm 431 W/m2
14:39 23.7 °C 18.4 °C 1017.2 hPa South 9.7 km/h 14.8 km/h 72% 0.0 mm 384 W/m2
14:45 22.9 °C 17.8 °C 1017.2 hPa South 5.0 km/h 14.8 km/h 73% 0.0 mm 424 W/m2
14:51 22.8 °C 17.9 °C 1017.2 hPa SSE 8.7 km/h 15.8 km/h 74% 0.0 mm 400 W/m2
14:57 23.0 °C 18.3 °C 1016.8 hPa SSE 7.2 km/h 13.4 km/h 75% 0.0 mm 399 W/m2
15:03 23.2 °C 18.6 °C 1017.2 hPa SSE 5.0 km/h 13.4 km/h 75% 0.0 mm 530 W/m2
15:09 23.9 °C 18.8 °C 1016.8 hPa SSE 7.2 km/h 11.1 km/h 73% 0.0 mm 354 W/m2
15:15 24.0 °C 18.7 °C 1016.8 hPa SSE 3.5 km/h 13.4 km/h 72% 0.0 mm 270 W/m2
15:21 23.6 °C 18.3 °C 1017.2 hPa SSE 6.1 km/h 14.8 km/h 72% 0.0 mm 178 W/m2
15:27 22.5 °C 17.9 °C 1017.2 hPa South 8.7 km/h 14.8 km/h 75% 0.0 mm 168 W/m2
15:33 22.5 °C 17.9 °C 1017.2 hPa South 8.7 km/h 14.8 km/h 75% 0.0 mm 158 W/m2
15:39 22.5 °C 18.1 °C 1017.2 hPa South 9.7 km/h 14.8 km/h 76% 0.0 mm 155 W/m2
15:45 23.2 °C 18.6 °C 1016.8 hPa South 7.2 km/h 14.8 km/h 75% 0.0 mm 151 W/m2
15:51 23.2 °C 18.6 °C 1017.5 hPa South 7.2 km/h 13.4 km/h 75% 0.0 mm 148 W/m2
15:57 22.5 °C 17.7 °C 1017.2 hPa South 8.7 km/h 15.8 km/h 74% 0.0 mm 159 W/m2
16:03 22.2 °C 17.8 °C 1017.2 hPa South 9.7 km/h 17.2 km/h 76% 0.0 mm 185 W/m2
16:09 21.7 °C 18.1 °C 1017.2 hPa SSW 5.0 km/h 17.2 km/h 80% 0.0 mm 287 W/m2
16:15 22.0 °C 17.8 °C 1017.2 hPa South 8.7 km/h 15.8 km/h 77% 0.0 mm 322 W/m2
16:21 21.9 °C 17.9 °C 1016.8 hPa South 12.2 km/h 17.2 km/h 78% 0.0 mm 262 W/m2
16:27 22.0 °C 17.8 °C 1017.2 hPa South 8.7 km/h 17.2 km/h 77% 0.0 mm 324 W/m2
16:33 22.6 °C 18.2 °C 1016.8 hPa South 7.2 km/h 15.8 km/h 76% 0.0 mm 356 W/m2
16:39 23.0 °C 18.3 °C 1016.8 hPa SSW 1.1 km/h 12.2 km/h 75% 0.0 mm 326 W/m2
16:45 23.0 °C 18.3 °C 1016.8 hPa South 5.0 km/h 12.2 km/h 75% 0.0 mm 294 W/m2
16:51 22.7 °C 17.6 °C 1016.8 hPa SSW 6.1 km/h 11.1 km/h 73% 0.0 mm 185 W/m2
16:57 21.8 °C 17.4 °C 1016.8 hPa SW 6.1 km/h 12.2 km/h 76% 0.0 mm 156 W/m2
17:03 21.2 °C 17.4 °C 1016.8 hPa SW 3.5 km/h 12.2 km/h 79% 0.0 mm 139 W/m2
17:09 21.2 °C 17.8 °C 1017.2 hPa SSW 11.1 km/h 13.4 km/h 81% 0.0 mm 145 W/m2
17:15 21.0 °C 17.8 °C 1017.2 hPa SW 9.7 km/h 13.4 km/h 82% 0.0 mm 210 W/m2
17:21 21.0 °C 17.8 °C 1016.8 hPa SW 7.2 km/h 13.4 km/h 82% 0.0 mm 138 W/m2
17:27 20.8 °C 17.8 °C 1016.8 hPa Calm   14.8 km/h 83% 0.0 mm 131 W/m2
17:33 20.6 °C 17.8 °C 1017.2 hPa SSW 7.2 km/h 14.8 km/h 84% 0.0 mm 109 W/m2
17:40 20.3 °C 17.7 °C 1017.2 hPa SW 9.7 km/h 14.8 km/h 85% 0.0 mm 94 W/m2
17:45 20.1 °C 17.5 °C 1016.8 hPa SW 9.7 km/h 14.8 km/h 85% 0.0 mm 82 W/m2
17:51 19.9 °C 17.7 °C 1017.2 hPa SW 5.0 km/h 13.4 km/h 87% 0.0 mm 69 W/m2
17:57 19.7 °C 17.7 °C 1017.2 hPa SW 3.5 km/h 9.7 km/h 88% 0.0 mm 58 W/m2
18:03 19.6 °C 17.8 °C 1017.2 hPa SW 6.1 km/h 9.7 km/h 89% 0.0 mm 49 W/m2
18:09 19.4 °C 17.7 °C 1017.2 hPa SW 9.7 km/h 12.2 km/h 90% 0.0 mm 42 W/m2
18:15 19.3 °C 17.6 °C 1017.2 hPa SW 8.7 km/h 14.8 km/h 90% 0.0 mm 36 W/m2
18:21 19.2 °C 17.7 °C 1017.2 hPa SSW 6.1 km/h 13.4 km/h 91% 0.0 mm 31 W/m2
18:27 19.2 °C 17.9 °C 1017.2 hPa Calm   9.7 km/h 92% 0.0 mm 25 W/m2
18:33 19.2 °C 17.9 °C 1017.2 hPa Calm     92% 0.0 mm 18 W/m2
18:39 19.1 °C 17.8 °C 1017.2 hPa Calm     92% 0.0 mm 15 W/m2
18:45 19.4 °C 18.1 °C 1017.2 hPa Calm     92% 0.0 mm 14 W/m2
18:51 19.1 °C 17.8 °C 1017.2 hPa Calm   7.2 km/h 92% 0.0 mm 7 W/m2
18:57 19.0 °C 17.7 °C 1017.5 hPa Calm   6.1 km/h 92% 0.0 mm 4 W/m2
19:03 18.7 °C 17.6 °C 1017.5 hPa Calm     93% 0.0 mm 0 W/m2
19:09 18.6 °C 17.6 °C 1017.5 hPa Calm   5.0 km/h 94% 0.0 mm 0 W/m2
19:15 18.5 °C 17.7 °C 1017.5 hPa Calm   5.0 km/h 95% 0.0 mm 0 W/m2
19:21 18.4 °C 17.6 °C 1017.2 hPa Calm     95% 0.0 mm 0 W/m2
19:27 18.3 °C 17.5 °C 1017.5 hPa Calm     95% 0.0 mm 0 W/m2
19:33 18.2 °C 17.4 °C 1017.5 hPa Calm     95% 0.0 mm 0 W/m2
19:39 18.0 °C 17.2 °C 1017.8 hPa Calm     95% 0.0 mm 0 W/m2
19:45 17.8 °C 16.8 °C 1017.8 hPa Calm     94% 0.0 mm 0 W/m2
19:51 17.7 °C 16.7 °C 1017.8 hPa Calm     94% 0.0 mm 0 W/m2
19:57 17.6 °C 16.6 °C 1017.5 hPa Calm     94% 0.0 mm 0 W/m2
20:03 17.6 °C 16.6 °C 1017.5 hPa Calm     94% 0.0 mm 0 W/m2
20:09 17.5 °C 16.7 °C 1017.5 hPa Calm     95% 0.0 mm 0 W/m2
20:15 17.4 °C 16.6 °C 1017.8 hPa Calm     95% 0.0 mm 0 W/m2
20:21 17.3 °C 16.5 °C 1017.8 hPa Calm     95% 0.0 mm 0 W/m2
20:27 17.1 °C 16.3 °C 1017.8 hPa Calm     95% 0.0 mm 0 W/m2
20:33 16.9 °C 16.3 °C 1017.8 hPa Calm     96% 0.0 mm 0 W/m2
20:39 17.0 °C 16.2 °C 1017.8 hPa Calm     95% 0.0 mm 0 W/m2
20:45 16.9 °C 16.3 °C 1018.2 hPa Calm     96% 0.0 mm 0 W/m2
20:51 16.9 °C 16.3 °C 1017.8 hPa Calm     96% 0.0 mm 0 W/m2
20:57 16.8 °C 16.3 °C 1018.2 hPa Calm     97% 0.0 mm 0 W/m2
21:03 16.7 °C 16.2 °C 1018.2 hPa Calm     97% 0.0 mm 0 W/m2
21:09 16.6 °C 16.1 °C 1018.2 hPa Calm     97% 0.0 mm 0 W/m2
21:15 16.7 °C 16.2 °C 1018.2 hPa Calm     97% 0.0 mm 0 W/m2
21:21 16.6 °C 16.1 °C 1018.2 hPa Calm     97% 0.0 mm 0 W/m2
21:27 16.5 °C 16.2 °C 1018.2 hPa Calm     98% 0.0 mm 0 W/m2
21:33 16.4 °C 16.1 °C 1018.2 hPa Calm     98% 0.0 mm 0 W/m2
21:41 16.3 °C 16.0 °C 1018.2 hPa Calm     98% 0.0 mm 0 W/m2
21:47 16.2 °C 15.9 °C 1018.2 hPa Calm     98% 0.0 mm 0 W/m2
21:53 16.2 °C 15.9 °C 1018.2 hPa Calm     98% 0.0 mm 0 W/m2
21:59 16.2 °C 15.9 °C 1018.2 hPa Calm     98% 0.0 mm 0 W/m2
22:05 16.1 °C 15.8 °C 1018.2 hPa Calm     98% 0.0 mm 0 W/m2
22:11 16.0 °C 15.7 °C 1018.2 hPa Calm     98% 0.0 mm 0 W/m2
22:17 15.8 °C 15.7 °C 1018.2 hPa Calm     99% 0.0 mm 0 W/m2
22:23 15.8 °C 15.7 °C 1017.8 hPa Calm     99% 0.0 mm 0 W/m2
22:29 15.7 °C 15.6 °C 1018.2 hPa Calm     99% 0.0 mm 0 W/m2
22:35 15.7 °C 15.6 °C 1018.2 hPa Calm     99% 0.0 mm 0 W/m2
22:41 15.6 °C 15.4 °C 1017.8 hPa Calm     99% 0.0 mm 0 W/m2
22:47 15.6 °C 15.4 °C 1018.2 hPa Calm     99% 0.0 mm 0 W/m2
22:53 15.6 °C 15.4 °C 1018.2 hPa Calm     99% 0.0 mm 0 W/m2
22:59 15.5 °C 15.3 °C 1017.8 hPa Calm     99% 0.0 mm 0 W/m2
23:05 15.5 °C 15.3 °C 1017.8 hPa Calm     99% 0.0 mm 0 W/m2
23:11 15.5 °C 15.3 °C 1017.8 hPa Calm     99% 0.0 mm 0 W/m2
23:17 15.4 °C 15.3 °C 1017.8 hPa Calm     99% 0.0 mm 0 W/m2
23:23 15.5 °C 15.3 °C 1017.8 hPa Calm     99% 0.0 mm 0 W/m2
23:29 15.1 °C 14.9 °C 1017.8 hPa Calm     99% 0.0 mm 0 W/m2
23:35 14.9 °C 14.8 °C 1017.8 hPa Calm     99% 0.0 mm 0 W/m2
23:41 15.0 °C 14.8 °C 1017.8 hPa Calm     99% 0.0 mm 0 W/m2
23:47 15.3 °C 15.2 °C 1017.8 hPa Calm     99% 0.0 mm 0 W/m2
23:53 15.0 °C 14.8 °C 1017.8 hPa NW 1.1 km/h 7.2 km/h 99% 0.0 mm 0 W/m2
23:59 15.2 °C 15.1 °C 1017.5 hPa NW 5.0 km/h 9.7 km/h 99% 0.0 mm 0 W/m2
Northern Hawkes Bay. New Zealand Historic Data
Compliments of Weather Underground - 2 mb